Time;durP1;ratioP1;P1;durP2;ratioP2;P2;SDS_P1;SDS_P2;PMS_P1;PMS_P2;Temp;Humidity;BMP_temperature;BMP_pressure;BME280_temperature;BME280_humidity;BME280_pressure;Samples;Min_cycle;Max_cycle;Signal;HPM_P1;HPM_P2
2020/12/17 00:01:42;;;;;;;3.03;1.80;;;;;;;18.72;54.59;101213.84;4789551;29;20117;-74
2020/12/17 00:04:08;;;;;;;3.80;1.77;;;;;;;18.77;54.60;101219.97;4756840;29;20502;-74
2020/12/17 00:06:35;;;;;;;2.22;1.75;;;;;;;18.73;54.79;101219.09;4771670;29;20562;-74
2020/12/17 00:09:00;;;;;;;3.10;1.70;;;;;;;18.77;54.50;101222.59;4800946;29;20050;-74
2020/12/17 00:11:25;;;;;;;3.15;2.03;;;;;;;18.73;54.61;101216.47;4776262;30;20135;-74
2020/12/17 00:13:51;;;;;;;3.70;2.33;;;;;;;18.74;54.40;101231.31;4773121;29;20042;-74
2020/12/17 00:16:18;;;;;;;2.40;1.65;;;;;;;18.71;54.62;101218.19;4760505;29;20112;-74
2020/12/17 00:18:44;;;;;;;2.30;1.92;;;;;;;18.74;54.57;101228.69;4805973;29;20083;-74
2020/12/17 00:21:09;;;;;;;2.25;1.40;;;;;;;18.74;54.55;101231.31;4796422;29;20059;-74
2020/12/17 00:23:34;;;;;;;2.72;1.70;;;;;;;18.71;54.51;101220.81;4800857;29;20099;-74
2020/12/17 00:26:00;;;;;;;3.10;1.83;;;;;;;18.69;54.60;101209.50;4786166;29;20050;-74
2020/12/17 00:28:25;;;;;;;2.67;1.73;;;;;;;18.73;54.15;101212.97;4796260;29;20046;-74
2020/12/17 00:30:50;;;;;;;2.20;1.90;;;;;;;18.71;54.25;101217.31;4794148;29;20076;-74
2020/12/17 00:33:16;;;;;;;2.40;1.80;;;;;;;18.71;54.72;101209.47;4803362;29;20046;-74
2020/12/17 00:35:43;;;;;;;2.38;1.75;;;;;;;18.71;54.62;101215.59;4801161;29;20030;-74
2020/12/17 00:38:08;;;;;;;2.13;1.75;;;;;;;18.72;54.66;101213.84;4802137;29;20047;-74
2020/12/17 00:40:33;;;;;;;2.10;1.52;;;;;;;18.69;54.58;101217.34;4812619;29;20041;-74
2020/12/17 00:42:59;;;;;;;2.00;1.50;;;;;;;18.70;54.57;101218.19;4802186;29;20043;-74
2020/12/17 00:45:24;;;;;;;2.20;1.90;;;;;;;18.69;54.65;101219.97;4801695;29;20124;-74
2020/12/17 00:47:49;;;;;;;2.13;1.85;;;;;;;18.70;54.71;101212.97;4807664;29;20126;-73
2020/12/17 00:50:15;;;;;;;2.20;1.65;;;;;;;18.67;54.46;101215.59;4806903;29;20051;-74
2020/12/17 00:52:41;;;;;;;2.15;1.58;;;;;;;18.68;54.69;101218.22;4789052;29;20039;-74
2020/12/17 00:55:07;;;;;;;2.40;1.40;;;;;;;18.66;54.66;101216.47;4798346;29;20498;-74
2020/12/17 00:57:34;;;;;;;2.30;1.63;;;;;;;18.67;54.50;101203.38;4798826;29;20061;-74
2020/12/17 00:59:59;;;;;;;2.17;1.35;;;;;;;18.68;54.48;101220.84;4810798;29;20481;-74
2020/12/17 01:02:25;;;;;;;2.00;1.60;;;;;;;18.68;54.56;101219.97;4813719;29;20041;-73
2020/12/17 01:04:50;;;;;;;2.47;1.60;;;;;;;18.65;54.84;101217.34;4790763;29;20426;-74
2020/12/17 01:07:16;;;;;;;2.40;2.00;;;;;;;18.67;54.63;101221.72;4812213;29;20039;-74
2020/12/17 01:09:42;;;;;;;3.00;2.03;;;;;;;18.65;54.50;101214.72;4802623;29;20035;-74
2020/12/17 01:12:08;;;;;;;2.10;1.73;;;;;;;18.65;54.61;101215.59;4805144;29;20093;-74
2020/12/17 01:14:35;;;;;;;1.75;1.13;;;;;;;18.66;54.53;101219.97;4814306;29;20034;-74
2020/12/17 01:17:01;;;;;;;2.15;1.48;;;;;;;18.64;54.69;101212.97;4804942;29;20372;-74
2020/12/17 01:19:27;;;;;;;2.75;1.60;;;;;;;18.63;54.90;101217.34;4774964;29;20100;-74
2020/12/17 01:21:53;;;;;;;4.05;1.70;;;;;;;18.61;54.65;101219.09;4791917;29;20039;-74
2020/12/17 01:24:18;;;;;;;1.95;1.40;;;;;;;18.65;54.64;101226.06;4793601;29;20034;-74
2020/12/17 01:26:43;;;;;;;2.22;1.50;;;;;;;18.63;54.54;101225.19;4798627;29;20063;-74
2020/12/17 01:29:09;;;;;;;2.47;1.67;;;;;;;18.65;54.61;101220.84;4801673;29;20046;-73
2020/12/17 01:31:34;;;;;;;1.60;1.20;;;;;;;18.61;54.43;101219.09;4798407;29;20077;-74
2020/12/17 01:33:59;;;;;;;2.10;1.60;;;;;;;18.63;54.75;101225.19;4793716;29;20074;-74
2020/12/17 01:36:25;;;;;;;2.47;1.70;;;;;;;18.64;54.67;101220.84;4801349;29;20117;-74
2020/12/17 01:38:50;;;;;;;2.25;1.52;;;;;;;18.59;54.58;101215.59;4799449;29;20046;-74
2020/12/17 01:41:16;;;;;;;2.97;1.92;;;;;;;18.61;54.52;101232.19;4806524;29;20038;-74
2020/12/17 01:43:43;;;;;;;2.38;1.88;;;;;;;18.60;54.54;101230.44;4808822;29;20042;-73
2020/12/17 01:46:10;;;;;;;2.40;1.50;;;;;;;18.62;54.57;101228.69;4801533;29;20440;-74
2020/12/17 01:48:36;;;;;;;2.22;1.70;;;;;;;18.62;54.43;101236.53;4821559;29;20058;-74
2020/12/17 01:51:03;;;;;;;3.05;1.40;;;;;;;18.60;54.27;101226.94;4790276;29;20039;-74
2020/12/17 01:53:33;;;;;;;2.35;1.20;;;;;;;18.61;54.66;101226.06;4790796;29;20031;-74
2020/12/17 01:56:01;;;;;;;1.75;1.23;;;;;;;18.60;54.63;101233.03;4806631;29;20035;-74
2020/12/17 01:58:30;;;;;;;2.22;1.40;;;;;;;18.59;54.45;101230.41;4807661;29;20034;-74
2020/12/17 02:00:58;;;;;;;3.60;1.63;;;;;;;18.59;54.63;101230.41;4799330;29;20031;-74
2020/12/17 02:03:24;;;;;;;3.35;1.10;;;;;;;18.60;54.80;101235.66;4783085;29;20501;-74
2020/12/17 02:05:50;;;;;;;2.13;1.67;;;;;;;18.60;54.55;101237.41;4791636;29;20039;-74
2020/12/17 02:08:18;;;;;;;2.10;1.63;;;;;;;18.59;54.61;101241.78;4808011;29;20432;-74
2020/12/17 02:10:44;;;;;;;2.10;1.40;;;;;;;18.59;54.80;101240.91;4809900;29;20046;-72
2020/12/17 02:13:10;;;;;;;1.80;1.30;;;;;;;18.58;54.37;101240.03;4806468;29;20038;-72
2020/12/17 02:15:36;;;;;;;2.70;1.40;;;;;;;18.56;54.53;101233.91;4806669;29;20035;-72
2020/12/17 02:18:01;;;;;;;2.88;1.25;;;;;;;18.54;54.63;101227.78;4782081;29;20116;-72
2020/12/17 02:20:26;;;;;;;1.58;1.10;;;;;;;18.56;54.60;101226.06;4802048;29;20060;-72
2020/12/17 02:22:52;;;;;;;2.33;1.80;;;;;;;18.55;54.68;101232.16;4806412;29;20039;-72
2020/12/17 02:25:17;;;;;;;1.83;1.48;;;;;;;18.53;54.70;101226.03;4804532;29;20418;-72
2020/12/17 02:27:43;;;;;;;3.85;1.25;;;;;;;18.56;54.62;101231.28;4796135;29;20505;-72
2020/12/17 02:30:10;;;;;;;2.67;1.85;;;;;;;18.56;54.60;101231.28;4803758;29;20055;-72
2020/12/17 02:32:36;;;;;;;2.65;1.60;;;;;;;18.56;54.70;101226.88;4803601;29;20027;-72
2020/12/17 02:35:06;;;;;;;2.25;1.25;;;;;;;18.54;54.72;101226.03;4803926;29;20042;-72
2020/12/17 02:37:32;;;;;;;1.27;1.10;;;;;;;18.55;54.75;101230.41;4806234;29;20027;-72
2020/12/17 02:39:58;;;;;;;2.88;2.10;;;;;;;18.55;54.66;101235.66;4806374;29;20168;-72
2020/12/17 02:42:23;;;;;;;1.80;1.27;;;;;;;18.56;54.46;101237.38;4806381;29;20038;-72
2020/12/17 02:44:49;;;;;;;3.15;2.20;;;;;;;18.55;54.76;101232.16;4788577;29;20113;-71
2020/12/17 02:47:14;;;;;;;1.80;1.35;;;;;;;18.55;54.78;101229.53;4750988;29;20038;-72
2020/12/17 02:49:42;;;;;;;1.98;1.38;;;;;;;18.54;54.48;101233.91;4802343;29;20567;-72
2020/12/17 02:52:07;;;;;;;2.20;1.40;;;;;;;18.50;54.74;101224.28;4818125;29;20536;-74
2020/12/17 02:54:33;;;;;;;1.70;1.27;;;;;;;18.54;54.70;101226.03;4807899;29;20038;-73
2020/12/17 02:56:58;;;;;;;2.10;1.40;;;;;;;18.51;54.43;101205.09;4806466;29;20106;-73
2020/12/17 02:59:23;;;;;;;2.40;1.52;;;;;;;18.55;54.57;101216.44;4804949;29;20156;-74
2020/12/17 03:01:49;;;;;;;1.90;1.42;;;;;;;18.53;54.57;101220.81;4801706;29;20034;-74
2020/12/17 03:04:14;;;;;;;1.85;1.42;;;;;;;18.55;54.43;101219.06;4807622;29;20418;-74
2020/12/17 03:06:40;;;;;;;2.70;1.85;;;;;;;18.53;54.48;101213.81;4806414;29;20041;-74
2020/12/17 03:09:06;;;;;;;2.40;1.65;;;;;;;18.55;54.47;101224.31;4758704;30;20536;-74
2020/12/17 03:11:31;;;;;;;2.03;0.93;;;;;;;18.54;54.63;101226.03;4804825;29;20031;-74
2020/12/17 03:13:57;;;;;;;2.55;1.40;;;;;;;18.50;54.86;101226.03;4803584;29;20685;-74
2020/12/17 03:16:22;;;;;;;2.25;1.23;;;;;;;18.54;54.77;101238.25;4792227;29;20041;-74
2020/12/17 03:18:48;;;;;;;2.40;1.60;;;;;;;18.51;54.76;101236.50;4808178;29;20030;-74
2020/12/17 03:21:13;;;;;;;1.73;1.08;;;;;;;18.49;55.05;101234.75;4809701;29;20086;-74
2020/12/17 03:23:39;;;;;;;2.05;1.38;;;;;;;18.50;54.83;101232.13;4807656;29;20092;-74
2020/12/17 03:26:04;;;;;;;2.45;1.45;;;;;;;18.50;54.73;101234.75;4805188;29;20046;-74
2020/12/17 03:28:29;;;;;;;1.73;1.20;;;;;;;18.46;54.82;101229.50;4807007;29;20042;-74
2020/12/17 03:30:55;;;;;;;2.22;1.58;;;;;;;18.50;54.74;101236.50;4774477;29;20041;-74
2020/12/17 03:33:20;;;;;;;1.40;1.00;;;;;;;18.49;54.75;101240.88;4789654;29;20099;-74
2020/12/17 03:35:45;;;;;;;1.73;1.45;;;;;;;18.48;54.75;101236.50;4805180;29;20035;-74
2020/12/17 03:38:11;;;;;;;1.30;1.10;;;;;;;18.45;55.01;101240.84;4807048;29;20110;-74
2020/12/17 03:40:36;;;;;;;1.75;1.35;;;;;;;18.47;54.82;101246.97;4802011;29;20034;-74
2020/12/17 03:43:01;;;;;;;2.08;1.10;;;;;;;18.48;54.82;101260.06;4804582;29;20501;-74
2020/12/17 03:45:27;;;;;;;1.25;1.00;;;;;;;18.46;54.81;101247.84;4806649;29;20078;-72
2020/12/17 03:47:52;;;;;;;2.10;1.50;;;;;;;18.46;55.08;101247.84;4805142;29;20042;-72
2020/12/17 03:50:18;;;;;;;1.83;1.25;;;;;;;18.47;54.79;101244.34;4804093;29;20149;-72
2020/12/17 03:52:43;;;;;;;2.10;1.20;;;;;;;18.44;54.79;101241.72;4812035;29;20038;-72
2020/12/17 03:55:09;;;;;;;2.28;1.35;;;;;;;18.43;54.80;101246.09;4788772;29;20026;-72
2020/12/17 03:57:34;;;;;;;1.75;1.10;;;;;;;18.45;54.65;101249.56;4808455;29;20023;-72
2020/12/17 03:59:59;;;;;;;2.33;1.27;;;;;;;18.46;54.83;101255.69;4804958;29;20051;-72
2020/12/17 04:02:24;;;;;;;1.63;1.30;;;;;;;18.43;55.33;101260.94;4803409;29;20039;-72
2020/12/17 04:04:50;;;;;;;2.53;1.58;;;;;;;18.43;54.92;101259.19;4774340;29;20023;-72
2020/12/17 04:07:15;;;;;;;3.10;1.33;;;;;;;18.43;54.90;101268.81;4804844;29;20047;-72
2020/12/17 04:09:42;;;;;;;1.60;1.20;;;;;;;18.46;55.02;101263.53;4806633;29;20474;-72
2020/12/17 04:12:08;;;;;;;1.42;1.20;;;;;;;18.46;54.77;101281.88;4802542;29;20131;-72
2020/12/17 04:14:34;;;;;;;1.88;1.25;;;;;;;18.42;55.03;101274.91;4795683;29;20023;-72
2020/12/17 04:16:59;;;;;;;1.55;1.20;;;;;;;18.44;54.78;101276.63;4773450;29;20043;-72
2020/12/17 04:19:25;;;;;;;2.58;1.63;;;;;;;18.43;55.26;101268.81;4804155;29;20064;-72
2020/12/17 04:21:50;;;;;;;3.33;1.75;;;;;;;18.39;54.86;101256.56;4818060;29;20399;-72
2020/12/17 04:24:15;;;;;;;1.75;1.40;;;;;;;18.41;54.73;101270.53;4803434;29;20083;-72
2020/12/17 04:26:41;;;;;;;1.77;1.35;;;;;;;18.43;54.89;101272.28;4802971;29;20075;-72
2020/12/17 04:29:06;;;;;;;1.90;1.42;;;;;;;18.43;54.89;101280.16;4801952;29;20031;-72
2020/12/17 04:31:32;;;;;;;1.35;1.13;;;;;;;18.43;54.85;101276.66;4787770;29;20091;-72
2020/12/17 04:33:57;;;;;;;1.88;1.58;;;;;;;18.45;54.79;101277.50;4801540;29;20429;-74
2020/12/17 04:36:24;;;;;;;1.63;1.42;;;;;;;18.45;54.70;101285.38;4804427;29;20034;-74
2020/12/17 04:38:50;;;;;;;2.08;1.35;;;;;;;18.41;54.52;101271.41;4805736;29;20035;-72
2020/12/17 04:41:18;;;;;;;1.92;1.33;;;;;;;18.41;54.54;101278.41;4815424;29;20038;-72
2020/12/17 04:43:45;;;;;;;1.60;1.27;;;;;;;18.41;54.74;101273.16;4802503;29;20034;-72
2020/12/17 04:46:14;;;;;;;2.10;1.45;;;;;;;18.42;54.91;101277.53;4800919;29;20038;-72
2020/12/17 04:48:42;;;;;;;1.88;1.40;;;;;;;18.39;54.76;101269.66;4801064;29;20035;-72
2020/12/17 04:51:07;;;;;;;3.25;1.48;;;;;;;18.42;54.80;101277.53;4801937;29;20038;-72
2020/12/17 04:53:36;;;;;;;2.53;1.40;;;;;;;18.40;55.11;101276.66;4797607;29;20488;-72
2020/12/17 04:56:02;;;;;;;2.65;1.48;;;;;;;18.42;54.80;101274.91;4799410;29;20038;-73
2020/12/17 04:58:30;;;;;;;1.73;1.23;;;;;;;18.41;54.80;101275.78;4802814;29;20394;-72
2020/12/17 05:00:56;;;;;;;1.65;1.35;;;;;;;18.42;54.79;101269.66;4795867;29;20046;-72
2020/12/17 05:03:23;;;;;;;2.63;1.98;;;;;;;18.42;54.57;101272.28;4798302;29;20034;-72
2020/12/17 05:05:52;;;;;;;2.97;1.55;;;;;;;18.39;54.69;101273.16;4798177;29;20035;-72
2020/12/17 05:08:21;;;;;;;1.38;1.10;;;;;;;18.42;54.64;101270.53;4815352;29;20112;-72
2020/12/17 05:10:48;;;;;;;1.98;1.30;;;;;;;18.42;54.70;101277.53;4801935;29;20075;-72
2020/12/17 05:13:16;;;;;;;2.58;1.67;;;;;;;18.37;54.47;101271.38;4801116;29;20066;-72
2020/12/17 05:15:41;;;;;;;2.47;1.67;;;;;;;18.39;54.62;101275.78;4805048;29;20554;-72
2020/12/17 05:18:07;;;;;;;1.83;1.33;;;;;;;18.38;54.72;101276.63;4801767;29;20030;-72
2020/12/17 05:20:35;;;;;;;2.50;1.73;;;;;;;18.38;54.47;101278.38;4784540;29;20145;-72
2020/12/17 05:23:03;;;;;;;2.30;1.80;;;;;;;18.41;54.39;101294.97;4806885;29;20031;-72
2020/12/17 05:25:30;;;;;;;1.65;1.30;;;;;;;18.41;54.73;101294.09;4802987;29;20046;-72
2020/12/17 05:27:55;;;;;;;1.95;1.42;;;;;;;18.24;54.58;101261.75;4819271;29;20559;-72
2020/12/17 05:30:30;;;;;;;3.08;1.70;;;;;;;18.43;54.61;101303.72;4818219;29;20030;-72
2020/12/17 05:32:57;;;;;;;2.17;1.58;;;;;;;18.46;54.33;101297.59;4812163;29;20139;-72
2020/12/17 05:35:22;;;;;;;1.77;1.30;;;;;;;18.61;54.25;101309.88;4811825;29;20089;-73
2020/12/17 05:37:48;;;;;;;2.42;1.92;;;;;;;18.65;53.73;101304.66;4822714;29;20027;-72
2020/12/17 05:40:14;;;;;;;3.22;1.40;;;;;;;18.69;53.74;101316.91;4813988;29;20435;-72
2020/12/17 05:42:41;;;;;;;3.22;1.77;;;;;;;18.74;53.90;101303.78;4808899;29;20035;-73
2020/12/17 05:45:26;;;;;;;2.63;1.15;;;;;;;18.89;53.77;101309.94;4801214;29;20038;-73
2020/12/17 05:48:10;;;;;;;1.70;1.33;;;;;;;18.86;53.45;101323.03;4798751;29;20160;-73
2020/12/17 05:50:47;;;;;;;2.25;1.45;;;;;;;18.84;53.56;101331.75;4798898;29;20055;-73
2020/12/17 05:53:14;;;;;;;1.13;1.00;;;;;;;18.99;53.41;101334.38;4805363;29;20038;-73
2020/12/17 05:55:40;;;;;;;1.42;1.25;;;;;;;18.96;53.52;101337.00;4807861;29;20042;-73
2020/12/17 05:58:05;;;;;;;1.15;1.00;;;;;;;18.94;53.81;101345.75;4789369;29;20034;-73
2020/12/17 06:00:30;;;;;;;1.52;1.13;;;;;;;18.93;53.56;101347.50;4787404;29;20081;-73
2020/12/17 06:02:56;;;;;;;1.92;1.23;;;;;;;19.00;53.76;101359.72;4802769;29;20046;-72
2020/12/17 06:05:23;;;;;;;1.30;1.00;;;;;;;19.08;53.78;101351.91;4792730;29;20034;-73
2020/12/17 06:07:51;;;;;;;1.50;1.08;;;;;;;19.09;53.62;101358.84;4804944;29;20039;-72
2020/12/17 06:10:23;;;;;;;1.27;1.10;;;;;;;19.03;53.77;101359.75;4789928;29;20037;-73
2020/12/17 06:12:54;;;;;;;1.45;0.93;;;;;;;19.03;53.68;101361.50;4803955;29;20608;-72
2020/12/17 06:15:21;;;;;;;1.70;1.40;;;;;;;19.07;53.69;101361.50;4789786;29;20147;-72
2020/12/17 06:17:53;;;;;;;1.92;1.20;;;;;;;19.12;53.47;101362.38;4789647;29;20027;-73
2020/12/17 06:20:20;;;;;;;2.08;1.70;;;;;;;19.05;53.59;101365.00;4805067;29;20494;-72
2020/12/17 06:22:52;;;;;;;2.35;1.50;;;;;;;19.06;53.69;101358.88;4790016;29;20042;-72
2020/12/17 06:25:18;;;;;;;4.80;2.30;;;;;;;19.12;53.58;101361.50;4806433;29;20042;-72
2020/12/17 06:27:46;;;;;;;3.38;1.45;;;;;;;19.19;53.50;101358.00;4787009;29;20035;-77
2020/12/17 06:30:15;;;;;;;4.07;2.08;;;;;;;19.12;53.88;101353.63;4790023;29;20030;-73
2020/12/17 06:32:41;;;;;;;4.20;2.50;;;;;;;19.18;53.93;101366.75;4801748;29;20043;-72
2020/12/17 06:35:16;;;;;;;4.05;2.10;;;;;;;19.16;54.12;101360.63;4801044;29;20041;-72
2020/12/17 06:37:41;;;;;;;5.13;3.03;;;;;;;19.09;54.42;101364.09;4786355;29;20039;-72
2020/12/17 06:40:07;;;;;;;6.20;3.00;;;;;;;19.07;54.22;101360.63;4774352;29;20165;-72
2020/12/17 06:42:33;;;;;;;5.47;2.83;;;;;;;19.17;54.34;101363.25;4801147;29;20046;-73
2020/12/17 06:44:59;;;;;;;4.97;2.45;;;;;;;19.18;53.92;101364.13;4771715;29;20038;-73
2020/12/17 06:47:28;;;;;;;2.88;1.90;;;;;;;19.22;54.22;101365.84;4787991;29;20394;-73
2020/12/17 06:49:55;;;;;;;4.45;2.10;;;;;;;19.26;54.04;101365.88;4800599;29;20407;-73
2020/12/17 06:52:20;;;;;;;5.97;2.55;;;;;;;19.24;54.09;101369.34;4786055;29;20512;-74
2020/12/17 06:54:46;;;;;;;5.63;2.90;;;;;;;19.21;54.24;101369.38;4813944;29;20035;-74
2020/12/17 06:57:13;;;;;;;4.72;2.35;;;;;;;19.24;54.17;101366.72;4798216;29;20096;-73
2020/12/17 06:59:40;;;;;;;6.10;1.98;;;;;;;19.28;54.31;101372.00;4807174;29;20148;-76
2020/12/17 07:02:06;;;;;;;6.55;2.42;;;;;;;19.26;54.14;101378.09;4805929;29;20038;-74
2020/12/17 07:04:48;;;;;;;4.78;2.38;;;;;;;19.21;54.46;101372.00;4805911;29;20448;-74
2020/12/17 07:07:22;;;;;;;5.82;2.45;;;;;;;19.14;54.50;101372.84;4806341;29;20027;-74
2020/12/17 07:09:52;;;;;;;6.13;2.65;;;;;;;19.20;54.22;101376.38;4816581;29;20037;-74
2020/12/17 07:12:36;;;;;;;4.97;2.80;;;;;;;19.20;54.30;101391.22;4814372;29;20027;-74
2020/12/17 07:15:04;;;;;;;6.03;2.72;;;;;;;19.13;54.16;101389.44;4802957;29;20073;-74
2020/12/17 07:17:30;;;;;;;4.25;2.95;;;;;;;19.17;54.33;101401.69;4805612;29;20050;-74
2020/12/17 07:19:58;;;;;;;5.38;2.28;;;;;;;19.19;54.26;101397.34;4806068;29;20125;-74
2020/12/17 07:22:23;;;;;;;4.72;2.10;;;;;;;19.14;54.30;101402.56;4799248;29;20039;-74
2020/12/17 07:24:50;;;;;;;4.72;2.13;;;;;;;19.19;54.04;101408.69;4799563;29;20064;-74
2020/12/17 07:27:24;;;;;;;3.28;1.90;;;;;;;19.20;53.98;101415.69;4805627;29;20577;-74
2020/12/17 07:29:51;;;;;;;3.70;2.22;;;;;;;19.17;54.04;101415.69;4795394;29;20027;-74
2020/12/17 07:32:35;;;;;;;2.67;2.05;;;;;;;19.17;54.04;101417.44;4799761;29;20364;-74
2020/12/17 07:35:15;;;;;;;4.30;2.20;;;;;;;19.21;54.05;101414.78;4798847;29;20027;-74
2020/12/17 07:37:55;;;;;;;4.53;2.58;;;;;;;19.17;54.00;101415.69;4807246;29;20058;-74
2020/12/17 07:40:34;;;;;;;2.53;1.67;;;;;;;19.20;54.00;101422.69;4806627;29;20027;-74
2020/12/17 07:43:08;;;;;;;2.40;1.48;;;;;;;19.24;53.86;101433.16;4798724;29;20039;-74
2020/12/17 07:45:44;;;;;;;2.17;1.38;;;;;;;19.20;53.88;101431.44;4787705;30;20067;-74
2020/12/17 07:48:36;;;;;;;2.95;1.58;;;;;;;19.22;53.91;101431.41;4800811;29;20183;-74
2020/12/17 07:51:24;;;;;;;5.22;2.65;;;;;;;19.26;53.80;101441.91;4799735;29;20047;-74
2020/12/17 07:53:52;;;;;;;6.05;1.60;;;;;;;19.22;53.79;101441.88;4803259;29;20129;-74
2020/12/17 07:56:18;;;;;;;2.50;1.35;;;;;;;19.23;53.76;101446.25;4804104;29;20494;-74
2020/12/17 07:58:44;;;;;;;4.68;1.45;;;;;;;19.22;53.86;101448.00;4805741;29;20075;-74
2020/12/17 08:01:11;;;;;;;2.63;1.73;;;;;;;19.17;53.87;101454.13;4795361;29;20390;-75
2020/12/17 08:03:44;;;;;;;2.42;1.90;;;;;;;19.07;54.24;101450.63;4808575;29;20482;-74
2020/12/17 08:06:12;;;;;;;1.90;1.50;;;;;;;19.05;54.17;101456.72;4808690;29;20034;-74
2020/12/17 08:08:37;;;;;;;2.67;1.77;;;;;;;18.99;54.31;101457.56;4806899;29;20046;-74
2020/12/17 08:11:07;;;;;;;2.50;1.50;;;;;;;18.96;54.52;101457.56;4773227;29;21153;-73
2020/12/17 08:13:33;;;;;;;2.80;1.27;;;;;;;18.93;54.47;101457.56;4787645;29;20035;-74
2020/12/17 08:15:59;;;;;;;2.90;1.40;;;;;;;18.93;54.45;101468.06;4758252;30;20039;-73
2020/12/17 08:18:30;;;;;;;2.22;1.38;;;;;;;18.92;54.61;101466.31;4800147;29;20463;-74
2020/12/17 08:21:10;;;;;;;6.20;2.47;;;;;;;18.91;54.51;101469.78;4789853;29;20125;-74
2020/12/17 08:23:45;;;;;;;2.55;1.65;;;;;;;18.80;54.29;101464.53;4803871;29;20031;-75
2020/12/17 08:26:15;;;;;;;2.63;1.58;;;;;;;18.86;54.36;101467.16;4802137;29;20035;-73
2020/12/17 08:28:42;;;;;;;2.63;1.60;;;;;;;19.06;54.22;101482.09;4793832;29;20444;-73
2020/12/17 08:31:33;;;;;;;2.95;1.30;;;;;;;19.09;54.03;101489.94;4814459;29;20392;-73
2020/12/17 08:34:01;;;;;;;4.60;1.50;;;;;;;19.05;54.06;101489.06;4801841;29;20054;-72
2020/12/17 08:36:29;;;;;;;2.08;1.20;;;;;;;19.03;54.03;101497.78;4805815;29;20035;-78
2020/12/17 08:39:02;;;;;;;3.60;1.67;;;;;;;19.00;54.46;101496.03;4805416;29;20110;-72
2020/12/17 08:41:35;;;;;;;9.98;1.88;;;;;;;18.99;54.19;101496.03;4802946;29;20064;-75
2020/12/17 08:44:03;;;;;;;2.63;1.30;;;;;;;18.94;54.56;101495.16;4807286;29;20498;-76
2020/12/17 08:46:32;;;;;;;4.72;1.58;;;;;;;18.91;54.61;101496.88;4804160;29;20039;-72
2020/12/17 08:48:58;;;;;;;2.78;1.40;;;;;;;18.93;54.41;101499.50;4805357;29;20475;-72
2020/12/17 08:51:24;;;;;;;3.67;1.38;;;;;;;18.90;54.51;101499.50;4824149;29;20042;-72
2020/12/17 08:53:50;;;;;;;2.75;1.50;;;;;;;18.88;54.51;101501.22;4807501;29;20509;-71
2020/12/17 08:56:23;;;;;;;2.97;1.40;;;;;;;18.87;54.62;101502.09;4808087;29;20035;-72
2020/12/17 08:58:49;;;;;;;2.50;1.30;;;;;;;18.86;54.60;101511.69;4810174;29;20751;-72
2020/12/17 09:01:24;;;;;;;2.80;1.80;;;;;;;18.84;54.67;101500.34;4799314;29;20058;-72
2020/12/17 09:03:51;;;;;;;3.30;1.83;;;;;;;18.81;54.58;101504.72;4806477;29;20058;-72
2020/12/17 09:06:21;;;;;;;2.03;1.60;;;;;;;18.81;54.60;101502.97;4808276;29;20479;-71
2020/12/17 09:08:47;;;;;;;3.00;1.35;;;;;;;18.80;54.69;101514.31;4801546;29;20046;-72
2020/12/17 09:11:28;;;;;;;2.75;1.42;;;;;;;18.81;54.57;101528.28;4795395;29;20026;-72
2020/12/17 09:13:58;;;;;;;1.70;1.30;;;;;;;18.80;54.50;101534.41;4818898;29;20042;-72
2020/12/17 09:16:23;;;;;;;2.33;1.25;;;;;;;18.80;54.49;101535.28;4807808;29;20043;-72
2020/12/17 09:19:00;;;;;;;2.33;1.38;;;;;;;18.77;54.53;101537.00;4813292;29;20103;-72
2020/12/17 09:21:26;;;;;;;1.98;1.48;;;;;;;18.73;54.56;101528.22;4809567;29;20483;-72
2020/12/17 09:23:59;;;;;;;1.20;1.02;;;;;;;18.74;54.60;101540.47;4806572;29;20035;-72
2020/12/17 09:26:25;;;;;;;;;;;;;;;18.77;54.48;101548.34;4815781;29;20034;-72
2020/12/17 09:28:53;;;;;;;3.22;1.65;;;;;;;18.72;54.62;101546.56;4767731;29;19928;-72
2020/12/17 09:31:24;;;;;;;2.03;1.23;;;;;;;18.75;54.37;101552.72;4817943;29;20054;-71
2020/12/17 09:34:00;;;;;;;1.42;1.23;;;;;;;18.76;54.29;101567.56;4808680;29;20030;-72
2020/12/17 09:36:25;;;;;;;3.15;1.60;;;;;;;18.76;54.45;101569.31;4808609;29;20490;-72
2020/12/17 09:38:58;;;;;;;1.70;1.40;;;;;;;18.74;54.62;101565.78;4803738;29;20042;-71
2020/12/17 09:41:23;;;;;;;2.40;1.40;;;;;;;18.74;54.49;101571.03;4806402;29;20145;-72
2020/12/17 09:43:49;;;;;;;2.03;1.40;;;;;;;18.75;54.53;101572.78;4809503;29;20130;-72
2020/12/17 09:46:14;;;;;;;3.30;1.42;;;;;;;18.72;54.45;101576.25;4803825;29;20039;-72
2020/12/17 09:48:40;;;;;;;1.38;1.08;;;;;;;18.70;54.45;101577.13;4800499;29;20035;-72
2020/12/17 09:51:07;;;;;;;3.70;1.35;;;;;;;18.73;54.15;101585.88;4796682;29;20095;-71
2020/12/17 09:53:41;;;;;;;2.30;1.40;;;;;;;18.73;54.34;101588.50;4803870;29;20121;-72
2020/12/17 09:56:10;;;;;;;2.10;1.70;;;;;;;18.72;54.43;101594.59;4814473;29;20462;-72
2020/12/17 09:58:37;;;;;;;1.80;1.20;;;;;;;18.70;54.40;101580.63;4805485;29;20077;-72
2020/12/17 10:01:03;;;;;;;2.20;1.20;;;;;;;18.71;54.29;101586.72;4806126;29;20031;-72
2020/12/17 10:03:29;;;;;;;2.40;1.55;;;;;;;18.69;54.41;101592.00;4805762;29;20046;-72
2020/12/17 10:05:54;;;;;;;2.35;1.63;;;;;;;18.71;54.44;101602.44;4804519;29;20038;-72
2020/12/17 10:08:20;;;;;;;2.28;1.48;;;;;;;18.71;54.45;101605.06;4803280;29;20398;-72
2020/12/17 10:10:45;;;;;;;1.95;1.48;;;;;;;18.71;54.33;101608.56;4822232;29;20038;-72
2020/12/17 10:13:11;;;;;;;1.98;1.35;;;;;;;18.72;54.42;101612.06;4811261;29;20490;-73
2020/12/17 10:15:38;;;;;;;2.97;1.25;;;;;;;18.70;54.45;101613.78;4824355;29;20107;-74
2020/12/17 10:18:03;;;;;;;3.22;1.55;;;;;;;18.69;54.28;101614.69;4823958;29;20034;-72
2020/12/17 10:20:29;;;;;;;2.55;1.42;;;;;;;18.70;54.24;101619.91;4808940;29;20066;-72
2020/12/17 10:22:54;;;;;;;2.08;1.63;;;;;;;18.70;54.39;101612.06;4808628;29;20038;-72
2020/12/17 10:25:26;;;;;;;1.90;1.17;;;;;;;18.70;53.97;101616.41;4805252;29;20038;-72
2020/12/17 10:27:52;;;;;;;2.45;1.40;;;;;;;18.65;54.14;101613.78;4807635;29;20034;-72
2020/12/17 10:30:18;;;;;;;2.22;1.67;;;;;;;18.68;54.25;101613.81;4798705;29;20043;-71
2020/12/17 10:32:43;;;;;;;3.92;2.10;;;;;;;18.69;54.32;101622.56;4792227;29;20038;-71
2020/12/17 10:35:10;;;;;;;2.58;1.10;;;;;;;18.66;54.47;101620.78;4812624;29;20447;-71
2020/12/17 10:37:38;;;;;;;2.00;1.20;;;;;;;18.68;54.28;101629.53;4790266;29;20054;-71
2020/12/17 10:40:03;;;;;;;2.60;1.40;;;;;;;18.68;54.22;101639.13;4805121;29;20039;-71
2020/12/17 10:42:29;;;;;;;3.40;1.77;;;;;;;18.66;54.23;101631.25;4813870;29;20061;-71
2020/12/17 10:44:54;;;;;;;2.33;1.20;;;;;;;18.68;53.86;101639.13;4803958;29;20062;-72
2020/12/17 10:47:20;;;;;;;1.90;1.10;;;;;;;18.67;54.30;101640.88;4804972;29;20047;-72
2020/12/17 10:49:46;;;;;;;3.13;1.40;;;;;;;18.69;54.12;101646.13;4805542;29;20474;-72
2020/12/17 10:52:11;;;;;;;2.08;1.27;;;;;;;18.67;54.32;101651.34;4788082;29;20042;-72
2020/12/17 10:54:38;;;;;;;2.35;1.30;;;;;;;18.61;54.46;101638.19;4798990;29;20045;-72
2020/12/17 10:57:04;;;;;;;5.22;1.45;;;;;;;18.67;54.50;101650.47;4795306;29;20033;-72
2020/12/17 10:59:29;;;;;;;2.05;1.27;;;;;;;18.68;54.28;101658.34;4778963;29;20117;-72
2020/12/17 11:01:59;;;;;;;4.25;1.98;;;;;;;18.64;54.34;101647.81;4810115;29;20553;-72
2020/12/17 11:04:24;;;;;;;4.47;1.75;;;;;;;18.65;54.54;101653.09;4794405;29;20031;-73
2020/12/17 11:06:54;;;;;;;1.90;1.27;;;;;;;18.63;54.44;101662.66;4811675;29;20088;-71
2020/12/17 11:09:19;;;;;;;3.45;1.13;;;;;;;18.60;54.39;101651.28;4794202;29;20030;-73
2020/12/17 11:11:45;;;;;;;2.40;1.15;;;;;;;18.61;54.43;101663.50;4792793;29;20094;-74
2020/12/17 11:14:10;;;;;;;2.13;1.23;;;;;;;18.62;54.47;101666.16;4758730;30;20032;-74
2020/12/17 11:16:35;;;;;;;2.10;1.42;;;;;;;18.59;54.64;101660.88;4806688;29;20485;-73
2020/12/17 11:19:01;;;;;;;1.95;1.25;;;;;;;18.63;54.82;101670.53;4789745;29;20039;-74
2020/12/17 11:21:26;;;;;;;1.70;1.08;;;;;;;18.64;54.42;101669.66;4790610;29;20065;-73
2020/12/17 11:23:52;;;;;;;2.05;1.25;;;;;;;18.65;54.35;101671.41;4776791;29;20066;-71
2020/12/17 11:26:17;;;;;;;3.38;1.63;;;;;;;18.64;54.43;101674.91;4774008;29;20077;-72